createdAt,value
2019-05-03T00:02:27.928Z,9.30
2019-05-03T00:06:40.464Z,9.40
2019-05-03T00:10:53.037Z,9.70
2019-05-03T00:15:16.615Z,9.70
2019-05-03T00:19:29.195Z,9.70
2019-05-03T00:23:41.889Z,9.80
2019-05-03T00:27:54.616Z,9.80
2019-05-03T00:32:07.045Z,9.80
2019-05-03T00:36:36.239Z,9.90
2019-05-03T00:40:49.125Z,9.80
2019-05-03T00:45:02.297Z,9.90
2019-05-03T00:49:15.294Z,9.80
2019-05-03T00:53:28.101Z,9.80
2019-05-03T00:57:41.594Z,9.80
2019-05-03T01:01:54.885Z,9.70
2019-05-03T01:06:07.365Z,9.60
2019-05-03T01:10:19.879Z,9.50
2019-05-03T01:14:33.334Z,9.30
2019-05-03T01:18:45.946Z,9.00
2019-05-03T01:22:58.740Z,8.80
2019-05-03T01:27:12.418Z,8.70
2019-05-03T01:31:24.867Z,8.70
2019-05-03T01:35:37.709Z,8.70
2019-05-03T01:39:52.655Z,8.70
2019-05-03T01:44:05.483Z,8.70
2019-05-03T01:48:41.634Z,8.60
2019-05-03T01:52:55.076Z,8.60
2019-05-03T01:57:07.580Z,8.50
2019-05-03T02:01:35.538Z,8.50
2019-05-03T02:05:52.048Z,8.60
2019-05-03T02:10:05.624Z,8.70
2019-05-03T02:14:18.071Z,8.80
2019-05-03T02:18:31.846Z,8.80
2019-05-03T02:22:44.583Z,9.00
2019-05-03T02:26:57.148Z,9.00
2019-05-03T02:31:10.109Z,9.00
2019-05-03T02:35:22.843Z,8.90
2019-05-03T02:39:35.545Z,8.90
2019-05-03T02:43:55.787Z,8.90
2019-05-03T02:48:16.572Z,8.90
2019-05-03T02:52:37.875Z,8.90
2019-05-03T02:56:50.377Z,9.10
2019-05-03T03:01:06.294Z,9.20
2019-05-03T03:05:17.782Z,9.00
2019-05-03T03:09:30.817Z,9.10
2019-05-03T03:13:45.712Z,9.20
2019-05-03T03:17:59.845Z,9.30
2019-05-03T03:22:15.929Z,9.40
2019-05-03T03:26:37.119Z,9.50
2019-05-03T03:31:08.317Z,9.50
2019-05-03T03:35:29.087Z,9.50
2019-05-03T03:39:38.551Z,9.60
2019-05-03T03:43:52.096Z,9.60
2019-05-03T03:48:05.324Z,9.60
2019-05-03T03:52:17.991Z,9.60
2019-05-03T03:56:37.181Z,9.60
2019-05-03T04:00:47.421Z,9.40
2019-05-03T04:05:00.368Z,9.50
2019-05-03T04:09:15.871Z,9.40
2019-05-03T04:13:27.534Z,9.50
2019-05-03T04:17:48.171Z,9.60
2019-05-03T04:22:00.791Z,9.60
2019-05-03T04:26:16.007Z,9.50
2019-05-03T04:30:27.387Z,9.40
2019-05-03T04:34:40.265Z,9.30
2019-05-03T04:38:52.825Z,9.10
2019-05-03T04:43:06.012Z,9.20
2019-05-03T04:47:18.731Z,9.40
2019-05-03T04:51:31.552Z,9.30
2019-05-03T04:55:46.617Z,9.20
2019-05-03T04:59:58.449Z,9.20
2019-05-03T05:04:11.010Z,9.30
2019-05-03T05:08:25.325Z,9.30
2019-05-03T05:12:38.410Z,9.30
2019-05-03T05:16:50.882Z,9.20
2019-05-03T05:21:08.584Z,9.20
2019-05-03T05:25:25.120Z,9.20
2019-05-03T05:29:38.263Z,9.20
2019-05-03T05:33:50.822Z,9.20
2019-05-03T05:38:04.631Z,9.20
2019-05-03T05:42:17.349Z,9.10
2019-05-03T05:46:35.163Z,9.00
2019-05-03T05:50:47.912Z,9.00
2019-05-03T05:55:14.830Z,9.10
2019-05-03T05:59:46.292Z,9.20
2019-05-03T06:03:58.585Z,9.20
2019-05-03T06:08:45.086Z,9.30
2019-05-03T06:13:06.856Z,9.50
2019-05-03T06:17:24.891Z,9.60
2019-05-03T06:21:47.938Z,9.70
2019-05-03T06:26:00.745Z,9.80
2019-05-03T06:30:24.833Z,9.80
2019-05-03T06:34:37.740Z,9.90
2019-05-03T06:38:50.235Z,10.10
2019-05-03T06:43:09.231Z,10.20
2019-05-03T06:47:16.949Z,10.40
2019-05-03T06:51:29.310Z,10.50
2019-05-03T06:55:45.531Z,10.50
2019-05-03T07:00:02.105Z,10.50
2019-05-03T07:04:24.323Z,10.60
2019-05-03T07:08:57.754Z,10.60
2019-05-03T07:13:10.274Z,10.70
2019-05-03T07:17:24.837Z,10.70
2019-05-03T07:21:37.940Z,10.80
2019-05-03T07:25:50.513Z,11.00
2019-05-03T07:30:04.853Z,11.00
2019-05-03T07:34:17.483Z,11.10
2019-05-03T07:38:29.892Z,11.30
2019-05-03T07:42:42.208Z,11.50
2019-05-03T07:46:55.501Z,11.50
2019-05-03T07:51:08.336Z,11.60
2019-05-03T07:55:22.483Z,11.80
2019-05-03T07:59:35.713Z,12.00
2019-05-03T08:03:48.288Z,12.20
2019-05-03T08:08:01.378Z,12.50
2019-05-03T08:12:15.357Z,12.80
2019-05-03T08:16:28.347Z,12.90
2019-05-03T08:20:40.816Z,13.00
2019-05-03T08:24:55.310Z,13.00
2019-05-03T08:29:15.924Z,13.20
2019-05-03T08:33:30.780Z,13.20
2019-05-03T08:37:55.999Z,13.30
2019-05-03T08:42:12.368Z,13.30
2019-05-03T08:46:25.361Z,12.90
2019-05-03T08:50:38.032Z,12.80
2019-05-03T08:54:50.921Z,12.80
2019-05-03T08:59:04.678Z,12.90
2019-05-03T09:03:17.391Z,13.00
2019-05-03T09:07:29.631Z,13.20
2019-05-03T09:11:45.274Z,13.30
2019-05-03T09:15:57.171Z,13.50
2019-05-03T09:20:10.062Z,13.60
2019-05-03T09:24:24.453Z,13.60
2019-05-03T09:28:37.120Z,13.70
2019-05-03T09:32:49.633Z,13.70
2019-05-03T09:37:02.067Z,13.50
2019-05-03T09:41:15.152Z,13.50
2019-05-03T09:45:27.636Z,13.40
2019-05-03T09:49:42.362Z,13.40
2019-05-03T09:53:59.789Z,13.50
2019-05-03T09:58:12.404Z,13.60
2019-05-03T10:02:24.849Z,13.70
2019-05-03T10:06:37.552Z,13.50
2019-05-03T10:11:07.295Z,13.80
2019-05-03T10:15:37.221Z,13.90
2019-05-03T10:19:49.821Z,13.90
2019-05-03T10:24:02.169Z,13.70
2019-05-03T10:28:16.820Z,13.90
2019-05-03T10:32:38.939Z,14.00
2019-05-03T10:36:55.339Z,14.00
2019-05-03T10:41:11.493Z,14.10
2019-05-03T10:45:28.215Z,14.10
2019-05-03T10:49:45.766Z,13.90
2019-05-03T10:54:00.352Z,13.80
2019-05-03T10:58:18.689Z,13.50
2019-05-03T11:02:49.804Z,13.50
2019-05-03T11:07:02.513Z,13.50
2019-05-03T11:11:15.211Z,13.50
2019-05-03T11:15:27.944Z,13.50
2019-05-03T11:19:40.408Z,13.30
2019-05-03T11:23:54.504Z,13.30
2019-05-03T11:28:13.583Z,13.10
2019-05-03T11:32:44.628Z,13.20
2019-05-03T11:37:15.516Z,13.20
2019-05-03T11:41:32.701Z,13.20
2019-05-03T11:45:44.855Z,13.00
2019-05-03T11:49:57.960Z,13.00
2019-05-03T11:54:10.613Z,12.90
2019-05-03T11:58:27.041Z,13.00
2019-05-03T12:02:52.569Z,13.00
2019-05-03T12:07:05.922Z,12.90
2019-05-03T12:11:18.728Z,13.00
2019-05-03T12:15:31.170Z,13.20
2019-05-03T12:19:46.851Z,13.50
2019-05-03T12:23:58.917Z,13.50
2019-05-03T12:28:11.811Z,13.60
2019-05-03T12:32:25.126Z,13.70
2019-05-03T12:36:39.177Z,13.80
2019-05-03T12:40:52.137Z,14.00
2019-05-03T12:45:07.090Z,14.40
2019-05-03T12:49:19.674Z,14.90
2019-05-03T12:53:32.708Z,15.30
2019-05-03T12:57:46.509Z,15.40
2019-05-03T13:02:04.920Z,15.40
2019-05-03T13:06:17.437Z,15.30
2019-05-03T13:10:30.481Z,15.30
2019-05-03T13:14:45.244Z,15.10
2019-05-03T13:18:56.884Z,14.90
2019-05-03T13:23:12.804Z,14.90
2019-05-03T13:27:25.445Z,14.90
2019-05-03T13:31:37.971Z,15.00
2019-05-03T13:35:51.035Z,15.20
2019-05-03T13:40:06.795Z,15.40
2019-05-03T13:44:19.617Z,15.60
2019-05-03T13:48:42.630Z,15.50
2019-05-03T13:52:48.542Z,15.40
2019-05-03T13:57:00.845Z,15.50
2019-05-03T14:01:14.763Z,15.60
2019-05-03T14:05:27.583Z,15.40
2019-05-03T14:09:40.040Z,15.40
2019-05-03T14:13:52.445Z,15.80
2019-05-03T14:18:06.071Z,15.90
2019-05-03T14:22:20.000Z,15.90
2019-05-03T14:26:32.728Z,15.60
2019-05-03T14:30:47.182Z,15.50
2019-05-03T14:35:01.834Z,15.40
2019-05-03T14:39:15.173Z,15.30
2019-05-03T14:43:27.712Z,15.40
2019-05-03T14:47:40.444Z,15.30
2019-05-03T14:51:54.241Z,15.00
2019-05-03T14:56:14.980Z,14.80
2019-05-03T15:00:37.348Z,14.70
2019-05-03T15:04:50.071Z,14.70
2019-05-03T15:09:02.529Z,14.90
2019-05-03T15:13:15.901Z,14.90
2019-05-03T15:17:28.489Z,14.80
2019-05-03T15:21:40.856Z,14.70
2019-05-03T15:25:54.534Z,14.70
2019-05-03T15:30:07.541Z,14.60
2019-05-03T15:34:21.013Z,14.60
2019-05-03T15:38:34.633Z,14.60
2019-05-03T15:42:54.636Z,14.70
2019-05-03T15:47:15.589Z,14.70
2019-05-03T15:51:29.224Z,14.60
2019-05-03T15:55:41.529Z,14.80
2019-05-03T15:59:55.166Z,15.50
2019-05-03T16:04:08.052Z,16.20
2019-05-03T16:08:20.515Z,16.50
2019-05-03T16:12:34.423Z,16.50
2019-05-03T16:16:49.149Z,16.50
2019-05-03T16:21:01.815Z,16.40
2019-05-03T16:25:15.043Z,16.30
2019-05-03T16:29:27.537Z,16.20
2019-05-03T16:33:40.388Z,16.40
2019-05-03T16:37:54.442Z,16.60
2019-05-03T16:42:07.065Z,16.70
2019-05-03T16:46:19.892Z,17.00
2019-05-03T16:50:34.578Z,17.00
2019-05-03T16:54:46.853Z,17.00
2019-05-03T16:58:59.117Z,17.10
2019-05-03T17:03:12.004Z,17.00
2019-05-03T17:07:44.679Z,16.80
2019-05-03T17:12:09.482Z,16.90
2019-05-03T17:16:22.332Z,17.10
2019-05-03T17:20:34.899Z,17.00
2019-05-03T17:24:47.401Z,17.00
2019-05-03T17:29:00.141Z,16.90
2019-05-03T17:33:12.640Z,16.70
2019-05-03T17:37:25.794Z,16.50
2019-05-03T17:41:56.371Z,16.60
2019-05-03T17:46:09.163Z,16.50
2019-05-03T17:50:21.800Z,16.40
2019-05-03T17:55:00.990Z,16.20
2019-05-03T17:59:25.013Z,16.30
2019-05-03T18:03:41.124Z,16.00
2019-05-03T18:08:11.005Z,15.90
2019-05-03T18:12:24.389Z,15.80
2019-05-03T18:16:37.157Z,15.70
2019-05-03T18:20:49.655Z,15.60
2019-05-03T18:25:04.966Z,15.50
2019-05-03T18:29:17.105Z,15.20
2019-05-03T18:33:29.975Z,15.10
2019-05-03T18:37:43.133Z,14.80
2019-05-03T18:41:55.877Z,14.80
2019-05-03T18:46:27.012Z,14.60
2019-05-03T18:50:39.722Z,14.40
2019-05-03T18:54:52.241Z,14.20
2019-05-03T18:59:05.073Z,14.10
2019-05-03T19:03:17.817Z,13.90
2019-05-03T19:08:04.586Z,13.80
2019-05-03T19:12:37.643Z,13.60
2019-05-03T19:17:15.634Z,13.40
2019-05-03T19:21:28.171Z,13.30
2019-05-03T19:25:46.822Z,13.20
2019-05-03T19:29:55.515Z,13.20
2019-05-03T19:34:08.285Z,13.10
2019-05-03T19:38:20.819Z,13.00
2019-05-03T19:42:35.391Z,12.90
2019-05-03T19:46:47.989Z,12.90
2019-05-03T19:51:00.984Z,12.90
2019-05-03T19:55:15.368Z,12.70
2019-05-03T19:59:44.981Z,12.60
2019-05-03T20:04:02.692Z,12.50
2019-05-03T20:08:40.839Z,12.40
2019-05-03T20:12:53.744Z,12.30
2019-05-03T20:17:14.697Z,12.30
2019-05-03T20:21:27.235Z,12.10
2019-05-03T20:25:39.817Z,11.90
2019-05-03T20:29:55.316Z,11.80
2019-05-03T20:34:08.444Z,11.80
2019-05-03T20:38:21.795Z,11.70
2019-05-03T20:42:51.394Z,11.50
2019-05-03T20:47:09.118Z,11.30
2019-05-03T20:51:21.490Z,11.10
2019-05-03T20:55:34.703Z,11.10
2019-05-03T20:59:51.688Z,11.10
2019-05-03T21:04:01.549Z,11.10
2019-05-03T21:08:15.183Z,11.10
2019-05-03T21:12:27.540Z,11.20
2019-05-03T21:16:58.470Z,11.30
2019-05-03T21:21:19.612Z,11.20
2019-05-03T21:26:02.795Z,11.00
2019-05-03T21:29:55.767Z,10.80
2019-05-03T21:34:08.111Z,10.70
2019-05-03T21:38:21.005Z,10.70
2019-05-03T21:42:35.071Z,10.70
2019-05-03T21:46:49.645Z,10.70
2019-05-03T21:51:04.478Z,10.50
2019-05-03T21:55:17.130Z,10.40
2019-05-03T21:59:29.637Z,10.50
2019-05-03T22:03:44.613Z,10.50
2019-05-03T22:07:56.464Z,10.30
2019-05-03T22:12:09.333Z,10.20
2019-05-03T22:16:45.018Z,10.20
2019-05-03T22:21:16.406Z,10.30
2019-05-03T22:25:41.433Z,10.30
2019-05-03T22:29:54.603Z,10.20
2019-05-03T22:34:07.344Z,10.00
2019-05-03T22:38:21.067Z,9.90
2019-05-03T22:42:34.597Z,9.60
2019-05-03T22:46:47.352Z,9.40
2019-05-03T22:50:59.956Z,9.40
2019-05-03T22:55:12.325Z,9.40
2019-05-03T22:59:25.251Z,9.60
2019-05-03T23:03:44.989Z,9.60
2019-05-03T23:07:57.645Z,9.70
2019-05-03T23:12:10.208Z,9.70
2019-05-03T23:16:24.690Z,9.90
2019-05-03T23:20:55.271Z,9.90
2019-05-03T23:25:07.956Z,9.80
2019-05-03T23:29:20.735Z,9.70
2019-05-03T23:33:34.496Z,9.90
2019-05-03T23:37:46.983Z,9.90
2019-05-03T23:41:59.303Z,9.70
2019-05-03T23:46:14.583Z,9.70
2019-05-03T23:50:27.253Z,9.80
2019-05-03T23:54:39.617Z,9.50
2019-05-03T23:58:52.501Z,9.60
